Archival Weather

Dallas-Fort Worth Intl

Dallas-Fort Worth, Texas (KDFW)

Report from: Thursday, September 21, 2023 3:53 AM CDT
Current time: Sunday, February 25, 2024 4:10 PM CST

Current weather – Weather history – Daily summaries
Weather forecast

Temperature26.1°C (79.0°F)
Dew point18.9°C (66.0°F)
Winds 11 kts (5.7 m/s, 12.7 mph) South (170°)
Visibility10 mi. (16.1 km)
Clouds Few clouds 15,000 ft. (4,572 m)
Few clouds 25,000 ft. (7,620 m)
Altimeter29.89 in.Hg (1012 mB)
Relative humidity65 %
Density altitude1,645 ft. (501 m)
Sea-level pressure101.1 kPa (1011 mB, 29.86 in.Hg)
Remarks Automated weather observing station with precipitation discriminator
Pressure rising more slowly
Flight conditions Visual Meteorological Conditions
Raw dataKDFW 210853Z 17011KT 10SM FEW150 FEW250 26/19 A2989 RMK AO2 SLP113 T02610189 51006
An error has occurred. This application may no longer respond until reloaded. Reload 🗙